sensor_id;sensor_type;location;lat;lon;timestamp;temperature;humidity
8850;DHT22;5638;50.860;4.698;2022-11-02T00:00:43;15.40;99.90
8850;DHT22;5638;50.860;4.698;2022-11-02T00:03:10;15.40;99.90
8850;DHT22;5638;50.860;4.698;2022-11-02T00:05:35;15.50;99.90
8850;DHT22;5638;50.860;4.698;2022-11-02T00:08:01;15.40;99.90
8850;DHT22;5638;50.860;4.698;2022-11-02T00:10:27;15.40;99.90
8850;DHT22;5638;50.860;4.698;2022-11-02T00:12:56;15.40;99.90
8850;DHT22;5638;50.860;4.698;2022-11-02T00:15:25;15.40;99.90
8850;DHT22;5638;50.860;4.698;2022-11-02T00:18:00;15.40;99.90
8850;DHT22;5638;50.860;4.698;2022-11-02T00:20:30;15.50;99.90
8850;DHT22;5638;50.860;4.698;2022-11-02T00:22:58;15.40;99.90
8850;DHT22;5638;50.860;4.698;2022-11-02T00:25:26;15.40;99.90
8850;DHT22;5638;50.860;4.698;2022-11-02T00:27:53;15.40;99.90
8850;DHT22;5638;50.860;4.698;2022-11-02T00:30:19;15.50;99.90
8850;DHT22;5638;50.860;4.698;2022-11-02T00:32:45;15.50;99.90
8850;DHT22;5638;50.860;4.698;2022-11-02T00:35:12;15.40;99.90
8850;DHT22;5638;50.860;4.698;2022-11-02T00:37:38;15.30;99.90
8850;DHT22;5638;50.860;4.698;2022-11-02T00:40:04;15.30;99.90
8850;DHT22;5638;50.860;4.698;2022-11-02T00:42:31;15.30;99.90
8850;DHT22;5638;50.860;4.698;2022-11-02T00:44:56;15.30;99.90
8850;DHT22;5638;50.860;4.698;2022-11-02T00:47:22;15.30;99.90
8850;DHT22;5638;50.860;4.698;2022-11-02T00:49:48;15.30;99.90
8850;DHT22;5638;50.860;4.698;2022-11-02T00:52:14;15.20;99.90
8850;DHT22;5638;50.860;4.698;2022-11-02T00:54:40;15.30;99.90
8850;DHT22;5638;50.860;4.698;2022-11-02T00:57:05;15.20;99.90
8850;DHT22;5638;50.860;4.698;2022-11-02T00:59:31;15.20;99.90
8850;DHT22;5638;50.860;4.698;2022-11-02T01:01:57;15.20;99.90
8850;DHT22;5638;50.860;4.698;2022-11-02T01:04:23;15.20;99.90
8850;DHT22;5638;50.860;4.698;2022-11-02T01:06:49;15.20;99.90
8850;DHT22;5638;50.860;4.698;2022-11-02T01:09:15;15.20;99.90
8850;DHT22;5638;50.860;4.698;2022-11-02T01:11:41;15.10;99.90
8850;DHT22;5638;50.860;4.698;2022-11-02T01:14:09;15.10;99.90
8850;DHT22;5638;50.860;4.698;2022-11-02T01:16:35;15.00;99.90
8850;DHT22;5638;50.860;4.698;2022-11-02T01:19:02;15.00;99.90
8850;DHT22;5638;50.860;4.698;2022-11-02T01:21:28;14.90;99.90
8850;DHT22;5638;50.860;4.698;2022-11-02T01:23:54;14.90;99.90
8850;DHT22;5638;50.860;4.698;2022-11-02T01:26:20;14.90;99.90
8850;DHT22;5638;50.860;4.698;2022-11-02T01:28:46;14.80;99.90
8850;DHT22;5638;50.860;4.698;2022-11-02T01:31:12;14.80;99.90
8850;DHT22;5638;50.860;4.698;2022-11-02T01:33:45;14.70;99.90
8850;DHT22;5638;50.860;4.698;2022-11-02T01:36:13;14.80;99.90
8850;DHT22;5638;50.860;4.698;2022-11-02T01:38:40;14.70;99.90
8850;DHT22;5638;50.860;4.698;2022-11-02T01:41:06;14.80;99.90
8850;DHT22;5638;50.860;4.698;2022-11-02T01:43:34;14.70;99.90
8850;DHT22;5638;50.860;4.698;2022-11-02T01:48:54;14.70;99.90
8850;DHT22;5638;50.860;4.698;2022-11-02T01:54:33;14.60;99.90
8850;DHT22;5638;50.860;4.698;2022-11-02T01:57:06;14.60;99.90
8850;DHT22;5638;50.860;4.698;2022-11-02T01:59:42;14.60;99.90
8850;DHT22;5638;50.860;4.698;2022-11-02T02:02:21;14.70;99.90
8850;DHT22;5638;50.860;4.698;2022-11-02T02:04:51;14.60;99.90
8850;DHT22;5638;50.860;4.698;2022-11-02T02:07:22;14.60;99.90
8850;DHT22;5638;50.860;4.698;2022-11-02T02:09:51;14.60;99.90
8850;DHT22;5638;50.860;4.698;2022-11-02T02:12:19;14.60;99.90
8850;DHT22;5638;50.860;4.698;2022-11-02T02:14:46;14.60;99.90
8850;DHT22;5638;50.860;4.698;2022-11-02T02:17:33;14.70;99.90
8850;DHT22;5638;50.860;4.698;2022-11-02T02:20:16;14.60;99.90
8850;DHT22;5638;50.860;4.698;2022-11-02T02:29:15;14.50;99.90
8850;DHT22;5638;50.860;4.698;2022-11-02T02:32:24;14.40;99.90
8850;DHT22;5638;50.860;4.698;2022-11-02T02:35:10;14.40;99.90
8850;DHT22;5638;50.860;4.698;2022-11-02T02:37:50;14.50;99.90
8850;DHT22;5638;50.860;4.698;2022-11-02T02:40:34;14.50;99.90
8850;DHT22;5638;50.860;4.698;2022-11-02T02:43:09;14.50;99.90
8850;DHT22;5638;50.860;4.698;2022-11-02T02:45:49;14.40;99.90
8850;DHT22;5638;50.860;4.698;2022-11-02T02:48:21;14.30;99.90
8850;DHT22;5638;50.860;4.698;2022-11-02T02:50:52;14.30;99.90
8850;DHT22;5638;50.860;4.698;2022-11-02T02:53:28;14.40;99.90
8850;DHT22;5638;50.860;4.698;2022-11-02T02:55:59;14.30;99.90
8850;DHT22;5638;50.860;4.698;2022-11-02T02:58:31;14.30;99.90
8850;DHT22;5638;50.860;4.698;2022-11-02T03:01:05;14.30;99.90
8850;DHT22;5638;50.860;4.698;2022-11-02T03:03:35;14.20;99.90
8850;DHT22;5638;50.860;4.698;2022-11-02T03:09:18;14.20;99.90
8850;DHT22;5638;50.860;4.698;2022-11-02T03:15:15;14.20;99.90
8850;DHT22;5638;50.860;4.698;2022-11-02T03:18:16;14.20;99.90
8850;DHT22;5638;50.860;4.698;2022-11-02T03:21:22;14.10;99.90
8850;DHT22;5638;50.860;4.698;2022-11-02T03:24:13;14.10;99.90
8850;DHT22;5638;50.860;4.698;2022-11-02T03:26:58;14.10;99.90
8850;DHT22;5638;50.860;4.698;2022-11-02T03:32:19;14.10;99.90
8850;DHT22;5638;50.860;4.698;2022-11-02T03:34:51;14.10;99.90
8850;DHT22;5638;50.860;4.698;2022-11-02T03:37:34;14.10;99.90
8850;DHT22;5638;50.860;4.698;2022-11-02T03:42:53;14.10;99.90
8850;DHT22;5638;50.860;4.698;2022-11-02T03:45:23;14.10;99.90
8850;DHT22;5638;50.860;4.698;2022-11-02T03:48:00;14.10;99.90
8850;DHT22;5638;50.860;4.698;2022-11-02T03:50:31;14.10;99.90
8850;DHT22;5638;50.860;4.698;2022-11-02T03:55:54;13.90;99.90
8850;DHT22;5638;50.860;4.698;2022-11-02T03:58:27;13.90;99.90
8850;DHT22;5638;50.860;4.698;2022-11-02T04:00:55;13.90;99.90
8850;DHT22;5638;50.860;4.698;2022-11-02T04:03:27;14.00;99.90
8850;DHT22;5638;50.860;4.698;2022-11-02T04:05:57;14.00;99.90
8850;DHT22;5638;50.860;4.698;2022-11-02T04:08:36;14.00;99.90
8850;DHT22;5638;50.860;4.698;2022-11-02T04:11:08;14.00;99.90
8850;DHT22;5638;50.860;4.698;2022-11-02T04:13:53;13.90;99.90
8850;DHT22;5638;50.860;4.698;2022-11-02T04:16:37;13.90;99.90
8850;DHT22;5638;50.860;4.698;2022-11-02T04:19:03;13.90;99.90
8850;DHT22;5638;50.860;4.698;2022-11-02T04:21:49;13.90;99.90
8850;DHT22;5638;50.860;4.698;2022-11-02T04:24:34;13.80;99.90
8850;DHT22;5638;50.860;4.698;2022-11-02T04:27:31;13.90;99.90
8850;DHT22;5638;50.860;4.698;2022-11-02T04:29:57;13.90;99.90
8850;DHT22;5638;50.860;4.698;2022-11-02T04:32:23;13.90;99.90
8850;DHT22;5638;50.860;4.698;2022-11-02T04:35:07;13.90;99.90
8850;DHT22;5638;50.860;4.698;2022-11-02T04:37:38;13.90;99.90
8850;DHT22;5638;50.860;4.698;2022-11-02T04:40:23;13.90;99.90
8850;DHT22;5638;50.860;4.698;2022-11-02T04:42:49;13.90;99.90
8850;DHT22;5638;50.860;4.698;2022-11-02T04:45:15;13.80;99.90
8850;DHT22;5638;50.860;4.698;2022-11-02T04:47:41;13.80;99.90
8850;DHT22;5638;50.860;4.698;2022-11-02T04:50:07;13.80;99.90
8850;DHT22;5638;50.860;4.698;2022-11-02T04:52:33;13.80;99.90
8850;DHT22;5638;50.860;4.698;2022-11-02T04:54:59;13.80;99.90
8850;DHT22;5638;50.860;4.698;2022-11-02T04:57:24;13.70;99.90
8850;DHT22;5638;50.860;4.698;2022-11-02T04:59:50;13.70;99.90
8850;DHT22;5638;50.860;4.698;2022-11-02T05:02:16;13.70;99.90
8850;DHT22;5638;50.860;4.698;2022-11-02T05:04:42;13.70;99.90
8850;DHT22;5638;50.860;4.698;2022-11-02T05:07:09;13.70;99.90
8850;DHT22;5638;50.860;4.698;2022-11-02T05:09:35;13.70;99.90
8850;DHT22;5638;50.860;4.698;2022-11-02T05:12:01;13.70;99.90
8850;DHT22;5638;50.860;4.698;2022-11-02T05:14:32;13.60;99.90
8850;DHT22;5638;50.860;4.698;2022-11-02T05:16:59;13.70;99.90
8850;DHT22;5638;50.860;4.698;2022-11-02T05:19:25;13.60;99.90
8850;DHT22;5638;50.860;4.698;2022-11-02T05:21:50;13.60;99.90
8850;DHT22;5638;50.860;4.698;2022-11-02T05:24:16;13.60;99.90
8850;DHT22;5638;50.860;4.698;2022-11-02T05:26:42;13.60;99.90
8850;DHT22;5638;50.860;4.698;2022-11-02T05:29:08;13.50;99.90
8850;DHT22;5638;50.860;4.698;2022-11-02T05:31:34;13.40;99.90
8850;DHT22;5638;50.860;4.698;2022-11-02T05:34:00;13.50;99.90
8850;DHT22;5638;50.860;4.698;2022-11-02T05:36:26;13.50;99.90
8850;DHT22;5638;50.860;4.698;2022-11-02T05:38:55;13.40;99.90
8850;DHT22;5638;50.860;4.698;2022-11-02T05:41:22;13.40;99.90
8850;DHT22;5638;50.860;4.698;2022-11-02T05:43:48;13.40;99.90
8850;DHT22;5638;50.860;4.698;2022-11-02T05:46:13;13.40;99.90
8850;DHT22;5638;50.860;4.698;2022-11-02T05:48:40;13.40;99.90
8850;DHT22;5638;50.860;4.698;2022-11-02T05:51:06;13.40;99.90
8850;DHT22;5638;50.860;4.698;2022-11-02T05:53:34;13.40;99.90
8850;DHT22;5638;50.860;4.698;2022-11-02T05:56:04;13.40;99.90
8850;DHT22;5638;50.860;4.698;2022-11-02T05:58:32;13.30;99.90
8850;DHT22;5638;50.860;4.698;2022-11-02T06:01:03;13.20;99.90
8850;DHT22;5638;50.860;4.698;2022-11-02T06:03:31;13.10;99.90
8850;DHT22;5638;50.860;4.698;2022-11-02T06:05:58;13.20;99.90
8850;DHT22;5638;50.860;4.698;2022-11-02T06:08:26;13.10;99.90
8850;DHT22;5638;50.860;4.698;2022-11-02T06:10:53;13.10;99.90
8850;DHT22;5638;50.860;4.698;2022-11-02T06:13:19;13.10;99.90
8850;DHT22;5638;50.860;4.698;2022-11-02T06:15:45;13.20;99.90
8850;DHT22;5638;50.860;4.698;2022-11-02T06:18:10;13.10;99.90
8850;DHT22;5638;50.860;4.698;2022-11-02T06:20:36;13.20;99.90
8850;DHT22;5638;50.860;4.698;2022-11-02T06:23:02;13.10;99.90
8850;DHT22;5638;50.860;4.698;2022-11-02T06:25:28;13.10;99.90
8850;DHT22;5638;50.860;4.698;2022-11-02T06:27:55;13.10;99.90
8850;DHT22;5638;50.860;4.698;2022-11-02T06:30:25;13.10;99.90
8850;DHT22;5638;50.860;4.698;2022-11-02T06:32:52;13.10;99.90
8850;DHT22;5638;50.860;4.698;2022-11-02T06:35:20;13.10;99.90
8850;DHT22;5638;50.860;4.698;2022-11-02T06:37:47;13.00;99.90
8850;DHT22;5638;50.860;4.698;2022-11-02T06:40:13;13.00;99.90
8850;DHT22;5638;50.860;4.698;2022-11-02T06:42:39;13.10;99.90
8850;DHT22;5638;50.860;4.698;2022-11-02T06:45:06;12.90;99.90
8850;DHT22;5638;50.860;4.698;2022-11-02T06:47:34;12.90;99.90
8850;DHT22;5638;50.860;4.698;2022-11-02T06:50:03;12.80;99.90
8850;DHT22;5638;50.860;4.698;2022-11-02T06:52:30;12.90;99.90
8850;DHT22;5638;50.860;4.698;2022-11-02T06:54:56;12.80;99.90
8850;DHT22;5638;50.860;4.698;2022-11-02T06:57:22;12.80;99.90
8850;DHT22;5638;50.860;4.698;2022-11-02T06:59:48;12.80;99.90
8850;DHT22;5638;50.860;4.698;2022-11-02T07:02:14;12.90;99.90
8850;DHT22;5638;50.860;4.698;2022-11-02T07:04:40;12.90;99.90
8850;DHT22;5638;50.860;4.698;2022-11-02T07:07:05;12.90;99.90
8850;DHT22;5638;50.860;4.698;2022-11-02T07:09:31;12.80;99.90
8850;DHT22;5638;50.860;4.698;2022-11-02T07:11:57;12.80;99.90
8850;DHT22;5638;50.860;4.698;2022-11-02T07:14:23;12.80;99.90
8850;DHT22;5638;50.860;4.698;2022-11-02T07:16:49;12.90;99.90
8850;DHT22;5638;50.860;4.698;2022-11-02T07:19:15;12.90;99.90
8850;DHT22;5638;50.860;4.698;2022-11-02T07:21:41;12.90;99.90
8850;DHT22;5638;50.860;4.698;2022-11-02T07:24:07;12.90;99.90
8850;DHT22;5638;50.860;4.698;2022-11-02T07:26:33;12.80;99.90
8850;DHT22;5638;50.860;4.698;2022-11-02T07:28:58;12.90;99.90
8850;DHT22;5638;50.860;4.698;2022-11-02T07:31:24;12.90;99.90
8850;DHT22;5638;50.860;4.698;2022-11-02T07:33:50;12.90;99.90
8850;DHT22;5638;50.860;4.698;2022-11-02T07:36:16;12.90;99.90
8850;DHT22;5638;50.860;4.698;2022-11-02T07:38:42;12.80;99.90
8850;DHT22;5638;50.860;4.698;2022-11-02T07:41:07;12.90;99.90
8850;DHT22;5638;50.860;4.698;2022-11-02T07:43:33;13.00;99.90
8850;DHT22;5638;50.860;4.698;2022-11-02T07:46:01;13.10;99.90
8850;DHT22;5638;50.860;4.698;2022-11-02T07:48:28;13.20;99.90
8850;DHT22;5638;50.860;4.698;2022-11-02T07:50:57;13.20;99.90
8850;DHT22;5638;50.860;4.698;2022-11-02T07:53:24;13.30;99.90
8850;DHT22;5638;50.860;4.698;2022-11-02T07:55:50;13.40;99.90
8850;DHT22;5638;50.860;4.698;2022-11-02T07:58:17;13.50;99.90
8850;DHT22;5638;50.860;4.698;2022-11-02T08:00:43;13.60;99.90
8850;DHT22;5638;50.860;4.698;2022-11-02T08:03:10;13.70;99.90
8850;DHT22;5638;50.860;4.698;2022-11-02T08:05:38;13.90;99.90
8850;DHT22;5638;50.860;4.698;2022-11-02T08:08:09;14.00;99.90
8850;DHT22;5638;50.860;4.698;2022-11-02T08:10:39;14.10;99.90
8850;DHT22;5638;50.860;4.698;2022-11-02T08:13:07;14.20;99.90
8850;DHT22;5638;50.860;4.698;2022-11-02T08:15:34;14.30;99.90
8850;DHT22;5638;50.860;4.698;2022-11-02T08:18:06;14.40;99.90
8850;DHT22;5638;50.860;4.698;2022-11-02T08:20:36;14.50;99.90
8850;DHT22;5638;50.860;4.698;2022-11-02T08:23:03;14.60;99.90
8850;DHT22;5638;50.860;4.698;2022-11-02T08:25:30;14.50;99.90
8850;DHT22;5638;50.860;4.698;2022-11-02T08:27:58;14.60;99.90
8850;DHT22;5638;50.860;4.698;2022-11-02T08:30:26;14.80;99.90
8850;DHT22;5638;50.860;4.698;2022-11-02T08:32:54;14.80;99.90
8850;DHT22;5638;50.860;4.698;2022-11-02T08:35:20;14.80;99.90
8850;DHT22;5638;50.860;4.698;2022-11-02T08:37:56;14.90;99.90
8850;DHT22;5638;50.860;4.698;2022-11-02T08:40:25;14.90;99.90
8850;DHT22;5638;50.860;4.698;2022-11-02T08:42:56;15.00;99.90
8850;DHT22;5638;50.860;4.698;2022-11-02T08:45:24;15.10;99.90
8850;DHT22;5638;50.860;4.698;2022-11-02T08:47:50;15.10;99.90
8850;DHT22;5638;50.860;4.698;2022-11-02T08:50:16;15.10;99.90
8850;DHT22;5638;50.860;4.698;2022-11-02T08:52:42;15.10;99.90
8850;DHT22;5638;50.860;4.698;2022-11-02T08:55:08;15.40;99.90
8850;DHT22;5638;50.860;4.698;2022-11-02T08:57:48;15.20;99.90
8850;DHT22;5638;50.860;4.698;2022-11-02T09:00:17;15.30;99.90
8850;DHT22;5638;50.860;4.698;2022-11-02T09:02:58;15.40;99.90
8850;DHT22;5638;50.860;4.698;2022-11-02T09:05:26;15.50;99.90
8850;DHT22;5638;50.860;4.698;2022-11-02T09:08:00;15.50;99.90
8850;DHT22;5638;50.860;4.698;2022-11-02T09:10:29;15.50;99.90
8850;DHT22;5638;50.860;4.698;2022-11-02T09:13:01;15.70;99.90
8850;DHT22;5638;50.860;4.698;2022-11-02T09:15:29;16.10;99.90
8850;DHT22;5638;50.860;4.698;2022-11-02T09:17:55;16.30;99.90
8850;DHT22;5638;50.860;4.698;2022-11-02T09:20:21;16.20;99.90
8850;DHT22;5638;50.860;4.698;2022-11-02T09:22:47;16.40;99.90
8850;DHT22;5638;50.860;4.698;2022-11-02T09:25:14;16.50;99.90
8850;DHT22;5638;50.860;4.698;2022-11-02T09:27:41;16.40;99.90
8850;DHT22;5638;50.860;4.698;2022-11-02T09:30:08;16.60;99.90
8850;DHT22;5638;50.860;4.698;2022-11-02T09:32:36;16.90;99.90
8850;DHT22;5638;50.860;4.698;2022-11-02T09:35:06;16.90;99.90
8850;DHT22;5638;50.860;4.698;2022-11-02T09:37:34;17.10;99.90
8850;DHT22;5638;50.860;4.698;2022-11-02T09:40:00;17.20;99.90
8850;DHT22;5638;50.860;4.698;2022-11-02T09:42:43;17.10;99.90
8850;DHT22;5638;50.860;4.698;2022-11-02T09:45:52;16.90;99.90
8850;DHT22;5638;50.860;4.698;2022-11-02T09:48:29;16.90;99.90
8850;DHT22;5638;50.860;4.698;2022-11-02T09:51:09;17.00;99.90
8850;DHT22;5638;50.860;4.698;2022-11-02T09:56:19;17.10;99.90
8850;DHT22;5638;50.860;4.698;2022-11-02T09:58:51;17.30;99.90
8850;DHT22;5638;50.860;4.698;2022-11-02T10:15:40;17.80;99.90
8850;DHT22;5638;50.860;4.698;2022-11-02T10:18:24;17.60;99.90
8850;DHT22;5638;50.860;4.698;2022-11-02T10:20:57;17.70;99.90
8850;DHT22;5638;50.860;4.698;2022-11-02T10:23:37;18.00;99.90
8850;DHT22;5638;50.860;4.698;2022-11-02T10:26:07;18.00;99.90
8850;DHT22;5638;50.860;4.698;2022-11-02T10:28:52;17.90;99.90
8850;DHT22;5638;50.860;4.698;2022-11-02T10:31:28;18.20;99.90
8850;DHT22;5638;50.860;4.698;2022-11-02T10:33:59;18.50;99.90
8850;DHT22;5638;50.860;4.698;2022-11-02T10:40:45;18.90;99.90
8850;DHT22;5638;50.860;4.698;2022-11-02T10:51:33;19.00;99.90
8850;DHT22;5638;50.860;4.698;2022-11-02T10:53:59;19.40;99.90
8850;DHT22;5638;50.860;4.698;2022-11-02T10:56:32;19.30;99.90
8850;DHT22;5638;50.860;4.698;2022-11-02T11:01:24;18.90;99.90
8850;DHT22;5638;50.860;4.698;2022-11-02T11:04:02;19.00;99.90
8850;DHT22;5638;50.860;4.698;2022-11-02T11:06:41;19.00;99.90
8850;DHT22;5638;50.860;4.698;2022-11-02T11:09:19;19.30;99.90
8850;DHT22;5638;50.860;4.698;2022-11-02T11:11:55;19.30;99.90
8850;DHT22;5638;50.860;4.698;2022-11-02T11:14:29;19.30;99.90
8850;DHT22;5638;50.860;4.698;2022-11-02T11:17:00;19.00;99.90
8850;DHT22;5638;50.860;4.698;2022-11-02T11:25:52;18.70;99.90
8850;DHT22;5638;50.860;4.698;2022-11-02T11:28:24;19.00;99.90
8850;DHT22;5638;50.860;4.698;2022-11-02T11:31:08;18.90;99.90
8850;DHT22;5638;50.860;4.698;2022-11-02T11:36:34;19.10;99.90
8850;DHT22;5638;50.860;4.698;2022-11-02T11:39:06;19.10;99.90
8850;DHT22;5638;50.860;4.698;2022-11-02T11:41:48;19.00;99.90
8850;DHT22;5638;50.860;4.698;2022-11-02T11:44:15;19.20;99.90
8850;DHT22;5638;50.860;4.698;2022-11-02T11:46:43;18.90;99.90
8850;DHT22;5638;50.860;4.698;2022-11-02T11:49:34;18.80;99.90
8850;DHT22;5638;50.860;4.698;2022-11-02T11:52:17;19.00;99.90
8850;DHT22;5638;50.860;4.698;2022-11-02T11:57:45;19.40;99.90
8850;DHT22;5638;50.860;4.698;2022-11-02T12:00:27;19.80;99.90
8850;DHT22;5638;50.860;4.698;2022-11-02T12:03:07;20.00;99.90
8850;DHT22;5638;50.860;4.698;2022-11-02T12:14:47;20.30;99.90
8850;DHT22;5638;50.860;4.698;2022-11-02T12:17:39;20.40;99.90
8850;DHT22;5638;50.860;4.698;2022-11-02T12:26:39;19.10;99.90
8850;DHT22;5638;50.860;4.698;2022-11-02T12:41:06;20.00;99.90
8850;DHT22;5638;50.860;4.698;2022-11-02T12:43:47;19.70;99.90
8850;DHT22;5638;50.860;4.698;2022-11-02T12:46:42;19.70;99.90
8850;DHT22;5638;50.860;4.698;2022-11-02T12:49:38;19.50;99.90
8850;DHT22;5638;50.860;4.698;2022-11-02T12:52:29;19.50;99.90
8850;DHT22;5638;50.860;4.698;2022-11-02T12:55:02;19.90;99.90
8850;DHT22;5638;50.860;4.698;2022-11-02T12:57:35;20.10;99.90
8850;DHT22;5638;50.860;4.698;2022-11-02T13:00:06;19.80;99.90
8850;DHT22;5638;50.860;4.698;2022-11-02T13:05:44;19.60;99.90
8850;DHT22;5638;50.860;4.698;2022-11-02T13:08:21;19.90;99.90
8850;DHT22;5638;50.860;4.698;2022-11-02T13:10:57;20.10;99.90
8850;DHT22;5638;50.860;4.698;2022-11-02T13:13:42;20.30;99.90
8850;DHT22;5638;50.860;4.698;2022-11-02T13:16:16;20.50;99.70
8850;DHT22;5638;50.860;4.698;2022-11-02T13:18:52;20.10;99.50
8850;DHT22;5638;50.860;4.698;2022-11-02T13:21:44;20.00;99.90
8850;DHT22;5638;50.860;4.698;2022-11-02T13:24:17;19.80;99.90
8850;DHT22;5638;50.860;4.698;2022-11-02T13:26:48;19.60;99.90
8850;DHT22;5638;50.860;4.698;2022-11-02T13:29:32;19.60;99.90
8850;DHT22;5638;50.860;4.698;2022-11-02T13:35:03;18.90;99.90
8850;DHT22;5638;50.860;4.698;2022-11-02T13:37:41;18.90;99.90
8850;DHT22;5638;50.860;4.698;2022-11-02T13:40:21;19.20;99.90
8850;DHT22;5638;50.860;4.698;2022-11-02T13:52:14;18.60;99.90
8850;DHT22;5638;50.860;4.698;2022-11-02T13:54:44;18.20;99.90
8850;DHT22;5638;50.860;4.698;2022-11-02T13:57:41;18.30;99.90
8850;DHT22;5638;50.860;4.698;2022-11-02T14:00:29;18.20;99.90
8850;DHT22;5638;50.860;4.698;2022-11-02T14:03:11;18.40;99.90
8850;DHT22;5638;50.860;4.698;2022-11-02T14:05:49;18.50;99.90
8850;DHT22;5638;50.860;4.698;2022-11-02T14:08:38;18.50;99.90
8850;DHT22;5638;50.860;4.698;2022-11-02T14:22:16;18.60;99.90
8850;DHT22;5638;50.860;4.698;2022-11-02T14:35:29;18.80;99.90
8850;DHT22;5638;50.860;4.698;2022-11-02T14:38:39;18.80;99.90
8850;DHT22;5638;50.860;4.698;2022-11-02T14:41:30;18.70;99.90
8850;DHT22;5638;50.860;4.698;2022-11-02T14:47:14;18.60;99.90
8850;DHT22;5638;50.860;4.698;2022-11-02T14:49:48;18.70;99.90
8850;DHT22;5638;50.860;4.698;2022-11-02T14:52:29;18.60;99.90
8850;DHT22;5638;50.860;4.698;2022-11-02T14:57:52;18.50;99.90
8850;DHT22;5638;50.860;4.698;2022-11-02T15:08:33;18.20;99.90
8850;DHT22;5638;50.860;4.698;2022-11-02T15:11:48;18.10;99.90
8850;DHT22;5638;50.860;4.698;2022-11-02T15:17:01;18.10;99.90
8850;DHT22;5638;50.860;4.698;2022-11-02T15:19:41;18.20;99.90
8850;DHT22;5638;50.860;4.698;2022-11-02T15:25:45;18.10;99.90
8850;DHT22;5638;50.860;4.698;2022-11-02T15:27:55;17.90;99.90
8850;DHT22;5638;50.860;4.698;2022-11-02T15:30:28;17.80;99.90
8850;DHT22;5638;50.860;4.698;2022-11-02T15:32:59;17.70;99.90
8850;DHT22;5638;50.860;4.698;2022-11-02T15:35:37;17.70;99.90
8850;DHT22;5638;50.860;4.698;2022-11-02T15:38:05;17.70;99.90
8850;DHT22;5638;50.860;4.698;2022-11-02T15:40:49;17.60;99.90
8850;DHT22;5638;50.860;4.698;2022-11-02T15:49:59;17.20;99.90
8850;DHT22;5638;50.860;4.698;2022-11-02T16:00:41;16.40;99.90
8850;DHT22;5638;50.860;4.698;2022-11-02T16:03:08;16.40;99.90
8850;DHT22;5638;50.860;4.698;2022-11-02T16:05:43;16.40;99.90
8850;DHT22;5638;50.860;4.698;2022-11-02T16:08:22;16.40;99.90
8850;DHT22;5638;50.860;4.698;2022-11-02T16:10:50;16.20;99.90
8850;DHT22;5638;50.860;4.698;2022-11-02T16:13:28;16.20;99.90
8850;DHT22;5638;50.860;4.698;2022-11-02T16:16:05;16.10;99.90
8850;DHT22;5638;50.860;4.698;2022-11-02T16:18:37;16.00;99.90
8850;DHT22;5638;50.860;4.698;2022-11-02T16:21:16;16.00;99.90
8850;DHT22;5638;50.860;4.698;2022-11-02T16:23:48;15.90;99.90
8850;DHT22;5638;50.860;4.698;2022-11-02T16:26:24;15.90;99.90
8850;DHT22;5638;50.860;4.698;2022-11-02T16:28:55;15.80;99.90
8850;DHT22;5638;50.860;4.698;2022-11-02T16:31:25;15.70;99.90
8850;DHT22;5638;50.860;4.698;2022-11-02T16:34:34;15.70;99.90
8850;DHT22;5638;50.860;4.698;2022-11-02T16:36:55;15.50;99.90
8850;DHT22;5638;50.860;4.698;2022-11-02T16:39:30;15.40;99.90
8850;DHT22;5638;50.860;4.698;2022-11-02T16:42:10;15.30;99.90
8850;DHT22;5638;50.860;4.698;2022-11-02T16:44:40;15.30;99.90
8850;DHT22;5638;50.860;4.698;2022-11-02T16:52:22;15.20;99.90
8850;DHT22;5638;50.860;4.698;2022-11-02T16:54:53;15.10;99.90
8850;DHT22;5638;50.860;4.698;2022-11-02T16:57:26;15.20;99.90
8850;DHT22;5638;50.860;4.698;2022-11-02T16:59:56;15.30;99.90
8850;DHT22;5638;50.860;4.698;2022-11-02T17:02:31;15.20;99.90
8850;DHT22;5638;50.860;4.698;2022-11-02T17:05:03;15.10;99.90
8850;DHT22;5638;50.860;4.698;2022-11-02T17:07:34;15.00;99.90
8850;DHT22;5638;50.860;4.698;2022-11-02T17:10:06;15.00;99.90
8850;DHT22;5638;50.860;4.698;2022-11-02T17:12:36;14.90;99.90
8850;DHT22;5638;50.860;4.698;2022-11-02T17:15:18;14.90;99.90
8850;DHT22;5638;50.860;4.698;2022-11-02T17:17:46;14.80;99.90
8850;DHT22;5638;50.860;4.698;2022-11-02T17:27:54;14.80;99.90
8850;DHT22;5638;50.860;4.698;2022-11-02T17:30:42;14.70;99.90
8850;DHT22;5638;50.860;4.698;2022-11-02T17:33:22;14.60;99.90
8850;DHT22;5638;50.860;4.698;2022-11-02T17:35:54;14.70;99.90
8850;DHT22;5638;50.860;4.698;2022-11-02T17:38:27;14.60;99.90
8850;DHT22;5638;50.860;4.698;2022-11-02T17:40:54;14.50;99.90
8850;DHT22;5638;50.860;4.698;2022-11-02T17:43:22;14.60;99.90
8850;DHT22;5638;50.860;4.698;2022-11-02T17:45:55;14.50;99.90
8850;DHT22;5638;50.860;4.698;2022-11-02T17:48:25;14.50;99.90
8850;DHT22;5638;50.860;4.698;2022-11-02T17:50:56;14.50;99.90
8850;DHT22;5638;50.860;4.698;2022-11-02T17:53:24;14.40;99.90
8850;DHT22;5638;50.860;4.698;2022-11-02T17:55:50;14.40;99.90
8850;DHT22;5638;50.860;4.698;2022-11-02T17:58:16;14.40;99.90
8850;DHT22;5638;50.860;4.698;2022-11-02T18:00:42;14.40;99.90
8850;DHT22;5638;50.860;4.698;2022-11-02T18:03:16;14.30;99.90
8850;DHT22;5638;50.860;4.698;2022-11-02T18:05:45;14.30;99.90
8850;DHT22;5638;50.860;4.698;2022-11-02T18:08:11;14.30;99.90
8850;DHT22;5638;50.860;4.698;2022-11-02T18:10:43;14.30;99.90
8850;DHT22;5638;50.860;4.698;2022-11-02T18:13:13;14.20;99.90
8850;DHT22;5638;50.860;4.698;2022-11-02T18:15:40;14.20;99.90
8850;DHT22;5638;50.860;4.698;2022-11-02T18:18:07;14.10;99.90
8850;DHT22;5638;50.860;4.698;2022-11-02T18:20:33;14.20;99.90
8850;DHT22;5638;50.860;4.698;2022-11-02T18:23:00;14.10;99.90
8850;DHT22;5638;50.860;4.698;2022-11-02T18:25:28;14.10;99.90
8850;DHT22;5638;50.860;4.698;2022-11-02T18:27:58;14.00;99.90
8850;DHT22;5638;50.860;4.698;2022-11-02T18:30:27;14.00;99.90
8850;DHT22;5638;50.860;4.698;2022-11-02T18:32:55;14.00;99.90
8850;DHT22;5638;50.860;4.698;2022-11-02T18:35:23;13.90;99.90
8850;DHT22;5638;50.860;4.698;2022-11-02T18:37:49;13.90;99.90
8850;DHT22;5638;50.860;4.698;2022-11-02T18:40:18;13.90;99.90
8850;DHT22;5638;50.860;4.698;2022-11-02T18:42:45;13.90;99.90
8850;DHT22;5638;50.860;4.698;2022-11-02T18:45:13;14.00;99.90
8850;DHT22;5638;50.860;4.698;2022-11-02T18:47:40;13.90;99.90
8850;DHT22;5638;50.860;4.698;2022-11-02T18:50:08;13.90;99.90
8850;DHT22;5638;50.860;4.698;2022-11-02T18:52:36;13.90;99.90
8850;DHT22;5638;50.860;4.698;2022-11-02T18:55:03;13.90;99.90
8850;DHT22;5638;50.860;4.698;2022-11-02T18:57:32;13.90;99.90
8850;DHT22;5638;50.860;4.698;2022-11-02T18:59:59;13.90;99.90
8850;DHT22;5638;50.860;4.698;2022-11-02T19:02:27;13.90;99.90
8850;DHT22;5638;50.860;4.698;2022-11-02T19:04:53;13.90;99.90
8850;DHT22;5638;50.860;4.698;2022-11-02T19:07:19;13.90;99.90
8850;DHT22;5638;50.860;4.698;2022-11-02T19:10:04;13.90;99.90
8850;DHT22;5638;50.860;4.698;2022-11-02T19:12:30;13.90;99.90
8850;DHT22;5638;50.860;4.698;2022-11-02T19:14:56;13.90;99.90
8850;DHT22;5638;50.860;4.698;2022-11-02T19:17:24;13.80;99.90
8850;DHT22;5638;50.860;4.698;2022-11-02T19:19:51;13.80;99.90
8850;DHT22;5638;50.860;4.698;2022-11-02T19:22:19;13.80;99.90
8850;DHT22;5638;50.860;4.698;2022-11-02T19:24:50;13.70;99.90
8850;DHT22;5638;50.860;4.698;2022-11-02T19:27:23;13.80;99.90
8850;DHT22;5638;50.860;4.698;2022-11-02T19:29:53;13.80;99.90
8850;DHT22;5638;50.860;4.698;2022-11-02T19:32:19;13.70;99.90
8850;DHT22;5638;50.860;4.698;2022-11-02T19:34:45;13.70;99.90